sensor_id;sensor_type;location;lat;lon;timestamp;P1;durP1;ratioP1;P2;durP2;ratioP2
20411;SDS011;10365;52.578;8.138;2024-01-15T00:01:11;12.90;;;1.85;;
20411;SDS011;10365;52.578;8.138;2024-01-15T00:03:36;17.27;;;2.90;;
20411;SDS011;10365;52.578;8.138;2024-01-15T00:06:01;7.85;;;2.65;;
20411;SDS011;10365;52.578;8.138;2024-01-15T00:08:27;6.57;;;2.40;;
20411;SDS011;10365;52.578;8.138;2024-01-15T00:10:52;6.63;;;2.40;;
20411;SDS011;10365;52.578;8.138;2024-01-15T00:13:17;9.77;;;2.97;;
20411;SDS011;10365;52.578;8.138;2024-01-15T00:15:43;9.52;;;2.50;;
20411;SDS011;10365;52.578;8.138;2024-01-15T00:18:08;12.48;;;2.70;;
20411;SDS011;10365;52.578;8.138;2024-01-15T00:20:34;13.18;;;2.38;;
20411;SDS011;10365;52.578;8.138;2024-01-15T00:22:59;16.20;;;3.20;;
20411;SDS011;10365;52.578;8.138;2024-01-15T00:25:24;10.45;;;1.95;;
20411;SDS011;10365;52.578;8.138;2024-01-15T00:27:50;12.73;;;2.45;;
20411;SDS011;10365;52.578;8.138;2024-01-15T00:30:15;12.60;;;2.25;;
20411;SDS011;10365;52.578;8.138;2024-01-15T00:32:40;14.43;;;2.35;;
20411;SDS011;10365;52.578;8.138;2024-01-15T00:35:05;17.63;;;1.95;;
20411;SDS011;10365;52.578;8.138;2024-01-15T00:37:31;6.90;;;1.60;;
20411;SDS011;10365;52.578;8.138;2024-01-15T00:39:57;5.13;;;1.45;;
20411;SDS011;10365;52.578;8.138;2024-01-15T00:42:22;9.18;;;1.30;;
20411;SDS011;10365;52.578;8.138;2024-01-15T00:44:48;5.45;;;1.20;;
20411;SDS011;10365;52.578;8.138;2024-01-15T00:47:13;14.60;;;1.85;;
20411;SDS011;10365;52.578;8.138;2024-01-15T00:49:38;9.45;;;1.83;;
20411;SDS011;10365;52.578;8.138;2024-01-15T00:52:03;13.32;;;1.52;;
20411;SDS011;10365;52.578;8.138;2024-01-15T00:54:29;7.57;;;1.08;;
20411;SDS011;10365;52.578;8.138;2024-01-15T00:56:54;9.63;;;1.30;;
20411;SDS011;10365;52.578;8.138;2024-01-15T00:59:20;12.48;;;1.48;;
20411;SDS011;10365;52.578;8.138;2024-01-15T01:01:45;8.55;;;1.38;;
20411;SDS011;10365;52.578;8.138;2024-01-15T01:04:11;7.72;;;0.88;;
20411;SDS011;10365;52.578;8.138;2024-01-15T01:06:36;17.45;;;1.63;;
20411;SDS011;10365;52.578;8.138;2024-01-15T01:09:02;11.88;;;1.42;;
20411;SDS011;10365;52.578;8.138;2024-01-15T01:11:27;20.35;;;1.27;;
20411;SDS011;10365;52.578;8.138;2024-01-15T01:13:53;9.77;;;1.27;;
20411;SDS011;10365;52.578;8.138;2024-01-15T01:16:18;14.45;;;1.15;;
20411;SDS011;10365;52.578;8.138;2024-01-15T01:18:43;11.63;;;1.20;;
20411;SDS011;10365;52.578;8.138;2024-01-15T01:21:09;8.90;;;1.13;;
20411;SDS011;10365;52.578;8.138;2024-01-15T01:23:34;9.43;;;1.13;;
20411;SDS011;10365;52.578;8.138;2024-01-15T01:25:59;6.88;;;1.40;;
20411;SDS011;10365;52.578;8.138;2024-01-15T01:28:24;9.27;;;0.90;;
20411;SDS011;10365;52.578;8.138;2024-01-15T01:30:50;12.55;;;0.95;;
20411;SDS011;10365;52.578;8.138;2024-01-15T01:33:15;15.48;;;1.25;;
20411;SDS011;10365;52.578;8.138;2024-01-15T01:35:40;7.10;;;0.85;;
20411;SDS011;10365;52.578;8.138;2024-01-15T01:38:06;16.52;;;1.67;;
20411;SDS011;10365;52.578;8.138;2024-01-15T01:40:31;8.65;;;0.90;;
20411;SDS011;10365;52.578;8.138;2024-01-15T01:42:56;17.25;;;1.50;;
20411;SDS011;10365;52.578;8.138;2024-01-15T01:45:22;14.27;;;3.13;;
20411;SDS011;10365;52.578;8.138;2024-01-15T01:47:47;12.02;;;0.77;;
20411;SDS011;10365;52.578;8.138;2024-01-15T01:50:12;11.63;;;0.98;;
20411;SDS011;10365;52.578;8.138;2024-01-15T01:52:39;8.63;;;1.08;;
20411;SDS011;10365;52.578;8.138;2024-01-15T01:55:04;12.32;;;1.77;;
20411;SDS011;10365;52.578;8.138;2024-01-15T01:57:31;8.48;;;1.35;;
20411;SDS011;10365;52.578;8.138;2024-01-15T01:59:57;12.52;;;1.08;;
20411;SDS011;10365;52.578;8.138;2024-01-15T02:02:23;13.18;;;0.95;;
20411;SDS011;10365;52.578;8.138;2024-01-15T02:04:49;6.93;;;0.98;;
20411;SDS011;10365;52.578;8.138;2024-01-15T02:07:14;14.35;;;0.90;;
20411;SDS011;10365;52.578;8.138;2024-01-15T02:09:42;10.35;;;0.88;;
20411;SDS011;10365;52.578;8.138;2024-01-15T02:12:08;15.43;;;1.02;;
20411;SDS011;10365;52.578;8.138;2024-01-15T02:14:33;6.72;;;0.82;;
20411;SDS011;10365;52.578;8.138;2024-01-15T02:16:58;10.57;;;1.02;;
20411;SDS011;10365;52.578;8.138;2024-01-15T02:19:24;11.70;;;1.60;;
20411;SDS011;10365;52.578;8.138;2024-01-15T02:21:49;8.38;;;1.02;;
20411;SDS011;10365;52.578;8.138;2024-01-15T02:24:14;14.25;;;1.13;;
20411;SDS011;10365;52.578;8.138;2024-01-15T02:26:40;7.10;;;1.15;;
20411;SDS011;10365;52.578;8.138;2024-01-15T02:29:07;10.52;;;1.63;;
20411;SDS011;10365;52.578;8.138;2024-01-15T02:31:38;8.95;;;1.08;;
20411;SDS011;10365;52.578;8.138;2024-01-15T02:34:04;16.17;;;1.38;;
20411;SDS011;10365;52.578;8.138;2024-01-15T02:36:29;10.10;;;1.00;;
20411;SDS011;10365;52.578;8.138;2024-01-15T02:38:54;14.75;;;1.38;;
20411;SDS011;10365;52.578;8.138;2024-01-15T02:41:20;12.05;;;0.80;;
20411;SDS011;10365;52.578;8.138;2024-01-15T02:43:45;11.25;;;1.40;;
20411;SDS011;10365;52.578;8.138;2024-01-15T02:46:10;7.72;;;1.25;;
20411;SDS011;10365;52.578;8.138;2024-01-15T02:48:36;5.70;;;1.38;;
20411;SDS011;10365;52.578;8.138;2024-01-15T02:51:01;13.00;;;1.17;;
20411;SDS011;10365;52.578;8.138;2024-01-15T02:53:27;12.25;;;1.35;;
20411;SDS011;10365;52.578;8.138;2024-01-15T02:55:52;9.30;;;1.42;;
20411;SDS011;10365;52.578;8.138;2024-01-15T02:58:17;13.68;;;2.15;;
20411;SDS011;10365;52.578;8.138;2024-01-15T03:00:43;12.30;;;1.75;;
20411;SDS011;10365;52.578;8.138;2024-01-15T03:03:08;13.70;;;1.30;;
20411;SDS011;10365;52.578;8.138;2024-01-15T03:05:34;9.32;;;1.20;;
20411;SDS011;10365;52.578;8.138;2024-01-15T03:07:59;16.63;;;1.80;;
20411;SDS011;10365;52.578;8.138;2024-01-15T03:10:24;10.00;;;1.40;;
20411;SDS011;10365;52.578;8.138;2024-01-15T03:12:49;6.95;;;1.38;;
20411;SDS011;10365;52.578;8.138;2024-01-15T03:15:15;15.98;;;2.17;;
20411;SDS011;10365;52.578;8.138;2024-01-15T03:17:43;8.00;;;1.30;;
20411;SDS011;10365;52.578;8.138;2024-01-15T03:20:08;12.43;;;2.15;;
20411;SDS011;10365;52.578;8.138;2024-01-15T03:22:34;12.45;;;1.98;;
20411;SDS011;10365;52.578;8.138;2024-01-15T03:24:59;9.85;;;2.05;;
20411;SDS011;10365;52.578;8.138;2024-01-15T03:27:24;10.55;;;2.25;;
20411;SDS011;10365;52.578;8.138;2024-01-15T03:29:51;11.95;;;2.33;;
20411;SDS011;10365;52.578;8.138;2024-01-15T03:32:16;13.07;;;2.50;;
20411;SDS011;10365;52.578;8.138;2024-01-15T03:34:41;9.25;;;1.80;;
20411;SDS011;10365;52.578;8.138;2024-01-15T03:37:07;7.03;;;2.03;;
20411;SDS011;10365;52.578;8.138;2024-01-15T03:39:32;15.75;;;2.78;;
20411;SDS011;10365;52.578;8.138;2024-01-15T03:41:57;9.60;;;1.85;;
20411;SDS011;10365;52.578;8.138;2024-01-15T03:44:23;3.05;;;1.40;;
20411;SDS011;10365;52.578;8.138;2024-01-15T03:46:48;12.10;;;1.60;;
20411;SDS011;10365;52.578;8.138;2024-01-15T03:49:13;7.28;;;1.85;;
20411;SDS011;10365;52.578;8.138;2024-01-15T03:51:39;10.02;;;2.38;;
20411;SDS011;10365;52.578;8.138;2024-01-15T03:54:04;12.32;;;2.35;;
20411;SDS011;10365;52.578;8.138;2024-01-15T03:56:29;11.30;;;2.10;;
20411;SDS011;10365;52.578;8.138;2024-01-15T03:58:55;12.07;;;1.77;;
20411;SDS011;10365;52.578;8.138;2024-01-15T04:01:20;10.68;;;1.60;;
20411;SDS011;10365;52.578;8.138;2024-01-15T04:03:45;6.53;;;1.63;;
20411;SDS011;10365;52.578;8.138;2024-01-15T04:06:11;10.90;;;1.08;;
20411;SDS011;10365;52.578;8.138;2024-01-15T04:08:36;8.98;;;1.77;;
20411;SDS011;10365;52.578;8.138;2024-01-15T04:11:02;10.48;;;1.80;;
20411;SDS011;10365;52.578;8.138;2024-01-15T04:13:27;8.90;;;1.63;;
20411;SDS011;10365;52.578;8.138;2024-01-15T04:15:52;6.93;;;1.30;;
20411;SDS011;10365;52.578;8.138;2024-01-15T04:18:18;8.77;;;1.42;;
20411;SDS011;10365;52.578;8.138;2024-01-15T04:20:43;11.75;;;1.75;;
20411;SDS011;10365;52.578;8.138;2024-01-15T04:23:08;9.85;;;1.55;;
20411;SDS011;10365;52.578;8.138;2024-01-15T04:25:34;19.55;;;1.50;;
20411;SDS011;10365;52.578;8.138;2024-01-15T04:27:59;11.30;;;1.65;;
20411;SDS011;10365;52.578;8.138;2024-01-15T04:30:24;8.63;;;1.55;;
20411;SDS011;10365;52.578;8.138;2024-01-15T04:32:50;6.75;;;1.40;;
20411;SDS011;10365;52.578;8.138;2024-01-15T04:35:15;5.35;;;1.20;;
20411;SDS011;10365;52.578;8.138;2024-01-15T04:37:40;11.30;;;1.27;;
20411;SDS011;10365;52.578;8.138;2024-01-15T04:40:06;6.03;;;1.17;;
20411;SDS011;10365;52.578;8.138;2024-01-15T04:42:31;12.48;;;1.55;;
20411;SDS011;10365;52.578;8.138;2024-01-15T04:44:57;11.30;;;1.67;;
20411;SDS011;10365;52.578;8.138;2024-01-15T04:47:22;7.20;;;1.65;;
20411;SDS011;10365;52.578;8.138;2024-01-15T04:49:47;9.20;;;1.23;;
20411;SDS011;10365;52.578;8.138;2024-01-15T04:52:14;7.65;;;1.42;;
20411;SDS011;10365;52.578;8.138;2024-01-15T04:54:39;6.25;;;1.23;;
20411;SDS011;10365;52.578;8.138;2024-01-15T04:57:04;4.15;;;1.50;;
20411;SDS011;10365;52.578;8.138;2024-01-15T04:59:30;9.07;;;1.73;;
20411;SDS011;10365;52.578;8.138;2024-01-15T05:01:56;11.98;;;1.65;;
20411;SDS011;10365;52.578;8.138;2024-01-15T05:04:21;4.68;;;1.35;;
20411;SDS011;10365;52.578;8.138;2024-01-15T05:06:47;15.15;;;1.88;;
20411;SDS011;10365;52.578;8.138;2024-01-15T05:09:12;6.93;;;1.65;;
20411;SDS011;10365;52.578;8.138;2024-01-15T05:11:38;6.80;;;1.42;;
20411;SDS011;10365;52.578;8.138;2024-01-15T05:14:03;4.90;;;2.15;;
20411;SDS011;10365;52.578;8.138;2024-01-15T05:16:29;10.02;;;1.95;;
20411;SDS011;10365;52.578;8.138;2024-01-15T05:18:54;9.45;;;1.83;;
20411;SDS011;10365;52.578;8.138;2024-01-15T05:21:19;7.55;;;2.33;;
20411;SDS011;10365;52.578;8.138;2024-01-15T05:23:45;11.40;;;2.15;;
20411;SDS011;10365;52.578;8.138;2024-01-15T05:26:10;6.60;;;1.70;;
20411;SDS011;10365;52.578;8.138;2024-01-15T05:28:35;6.93;;;1.65;;
20411;SDS011;10365;52.578;8.138;2024-01-15T05:31:01;5.82;;;1.70;;
20411;SDS011;10365;52.578;8.138;2024-01-15T05:33:26;6.13;;;2.10;;
20411;SDS011;10365;52.578;8.138;2024-01-15T05:35:51;6.72;;;1.52;;
20411;SDS011;10365;52.578;8.138;2024-01-15T05:38:18;11.55;;;1.80;;
20411;SDS011;10365;52.578;8.138;2024-01-15T05:40:43;5.70;;;1.80;;
20411;SDS011;10365;52.578;8.138;2024-01-15T05:43:09;10.70;;;1.77;;
20411;SDS011;10365;52.578;8.138;2024-01-15T05:45:35;5.53;;;1.40;;
20411;SDS011;10365;52.578;8.138;2024-01-15T05:48:03;12.32;;;1.80;;
20411;SDS011;10365;52.578;8.138;2024-01-15T05:50:29;10.40;;;1.92;;
20411;SDS011;10365;52.578;8.138;2024-01-15T05:52:54;12.45;;;1.77;;
20411;SDS011;10365;52.578;8.138;2024-01-15T05:55:19;8.07;;;2.10;;
20411;SDS011;10365;52.578;8.138;2024-01-15T05:57:45;8.88;;;2.00;;
20411;SDS011;10365;52.578;8.138;2024-01-15T06:00:10;7.65;;;1.77;;
20411;SDS011;10365;52.578;8.138;2024-01-15T06:02:39;6.85;;;1.27;;
20411;SDS011;10365;52.578;8.138;2024-01-15T06:05:04;6.82;;;1.60;;
20411;SDS011;10365;52.578;8.138;2024-01-15T06:07:30;11.35;;;1.75;;
20411;SDS011;10365;52.578;8.138;2024-01-15T06:09:55;7.43;;;1.20;;
20411;SDS011;10365;52.578;8.138;2024-01-15T06:12:22;4.38;;;1.17;;
20411;SDS011;10365;52.578;8.138;2024-01-15T06:14:47;9.30;;;1.83;;
20411;SDS011;10365;52.578;8.138;2024-01-15T06:17:12;9.75;;;1.85;;
20411;SDS011;10365;52.578;8.138;2024-01-15T06:19:38;6.88;;;1.88;;
20411;SDS011;10365;52.578;8.138;2024-01-15T06:22:03;10.82;;;1.80;;
20411;SDS011;10365;52.578;8.138;2024-01-15T06:24:28;4.65;;;1.40;;
20411;SDS011;10365;52.578;8.138;2024-01-15T06:26:53;9.25;;;1.77;;
20411;SDS011;10365;52.578;8.138;2024-01-15T06:29:19;12.63;;;1.70;;
20411;SDS011;10365;52.578;8.138;2024-01-15T06:31:44;8.55;;;1.60;;
20411;SDS011;10365;52.578;8.138;2024-01-15T06:34:09;12.23;;;1.38;;
20411;SDS011;10365;52.578;8.138;2024-01-15T06:36:35;12.43;;;1.63;;
20411;SDS011;10365;52.578;8.138;2024-01-15T06:39:00;5.68;;;1.60;;
20411;SDS011;10365;52.578;8.138;2024-01-15T06:41:25;6.88;;;1.63;;
20411;SDS011;10365;52.578;8.138;2024-01-15T06:43:51;10.13;;;1.45;;
20411;SDS011;10365;52.578;8.138;2024-01-15T06:46:22;21.70;;;1.95;;
20411;SDS011;10365;52.578;8.138;2024-01-15T06:48:48;12.25;;;2.33;;
20411;SDS011;10365;52.578;8.138;2024-01-15T06:51:13;4.65;;;1.58;;
20411;SDS011;10365;52.578;8.138;2024-01-15T06:53:38;13.35;;;1.90;;
20411;SDS011;10365;52.578;8.138;2024-01-15T06:56:04;10.13;;;2.22;;
20411;SDS011;10365;52.578;8.138;2024-01-15T06:58:32;8.23;;;1.55;;
20411;SDS011;10365;52.578;8.138;2024-01-15T07:00:57;7.55;;;1.90;;
20411;SDS011;10365;52.578;8.138;2024-01-15T07:03:23;5.57;;;1.83;;
20411;SDS011;10365;52.578;8.138;2024-01-15T07:05:48;9.18;;;2.08;;
20411;SDS011;10365;52.578;8.138;2024-01-15T07:08:14;9.13;;;2.70;;
20411;SDS011;10365;52.578;8.138;2024-01-15T07:10:39;10.35;;;2.22;;
20411;SDS011;10365;52.578;8.138;2024-01-15T07:13:04;9.93;;;2.60;;
20411;SDS011;10365;52.578;8.138;2024-01-15T07:15:30;9.43;;;2.45;;
20411;SDS011;10365;52.578;8.138;2024-01-15T07:17:56;10.95;;;2.83;;
20411;SDS011;10365;52.578;8.138;2024-01-15T07:20:21;11.15;;;3.17;;
20411;SDS011;10365;52.578;8.138;2024-01-15T07:22:47;22.05;;;3.28;;
20411;SDS011;10365;52.578;8.138;2024-01-15T07:25:12;9.32;;;2.95;;
20411;SDS011;10365;52.578;8.138;2024-01-15T07:27:38;11.77;;;2.72;;
20411;SDS011;10365;52.578;8.138;2024-01-15T07:30:03;8.55;;;3.13;;
20411;SDS011;10365;52.578;8.138;2024-01-15T07:32:30;7.03;;;2.20;;
20411;SDS011;10365;52.578;8.138;2024-01-15T07:34:56;12.60;;;2.40;;
20411;SDS011;10365;52.578;8.138;2024-01-15T07:37:21;12.18;;;2.72;;
20411;SDS011;10365;52.578;8.138;2024-01-15T07:39:48;9.15;;;2.85;;
20411;SDS011;10365;52.578;8.138;2024-01-15T07:42:14;11.77;;;2.60;;
20411;SDS011;10365;52.578;8.138;2024-01-15T07:44:39;12.05;;;3.20;;
20411;SDS011;10365;52.578;8.138;2024-01-15T07:47:04;16.15;;;3.08;;
20411;SDS011;10365;52.578;8.138;2024-01-15T07:49:30;11.35;;;2.72;;
20411;SDS011;10365;52.578;8.138;2024-01-15T07:51:55;14.07;;;3.42;;
20411;SDS011;10365;52.578;8.138;2024-01-15T07:54:20;9.65;;;2.42;;
20411;SDS011;10365;52.578;8.138;2024-01-15T07:57:01;10.13;;;3.33;;
20411;SDS011;10365;52.578;8.138;2024-01-15T07:59:30;13.68;;;3.45;;
20411;SDS011;10365;52.578;8.138;2024-01-15T08:01:55;10.07;;;2.30;;
20411;SDS011;10365;52.578;8.138;2024-01-15T08:04:20;9.73;;;1.85;;
20411;SDS011;10365;52.578;8.138;2024-01-15T08:06:47;12.70;;;2.53;;
20411;SDS011;10365;52.578;8.138;2024-01-15T08:09:12;8.40;;;1.98;;
20411;SDS011;10365;52.578;8.138;2024-01-15T08:11:40;6.90;;;1.90;;
20411;SDS011;10365;52.578;8.138;2024-01-15T08:14:09;6.47;;;1.50;;
20411;SDS011;10365;52.578;8.138;2024-01-15T08:16:34;12.05;;;2.35;;
20411;SDS011;10365;52.578;8.138;2024-01-15T08:19:00;9.70;;;2.05;;
20411;SDS011;10365;52.578;8.138;2024-01-15T08:21:25;7.07;;;1.70;;
20411;SDS011;10365;52.578;8.138;2024-01-15T08:23:52;5.07;;;1.67;;
20411;SDS011;10365;52.578;8.138;2024-01-15T08:26:17;8.93;;;1.45;;
20411;SDS011;10365;52.578;8.138;2024-01-15T08:28:42;7.93;;;1.90;;
20411;SDS011;10365;52.578;8.138;2024-01-15T08:31:08;10.45;;;2.17;;
20411;SDS011;10365;52.578;8.138;2024-01-15T08:33:33;11.13;;;2.03;;
20411;SDS011;10365;52.578;8.138;2024-01-15T08:35:58;4.18;;;1.83;;
20411;SDS011;10365;52.578;8.138;2024-01-15T08:38:24;11.52;;;1.80;;
20411;SDS011;10365;52.578;8.138;2024-01-15T08:40:50;8.88;;;2.25;;
20411;SDS011;10365;52.578;8.138;2024-01-15T08:43:16;6.47;;;2.20;;
20411;SDS011;10365;52.578;8.138;2024-01-15T08:45:41;14.00;;;1.50;;
20411;SDS011;10365;52.578;8.138;2024-01-15T08:48:06;4.93;;;1.48;;
20411;SDS011;10365;52.578;8.138;2024-01-15T08:50:32;4.07;;;1.48;;
20411;SDS011;10365;52.578;8.138;2024-01-15T08:52:57;2.65;;;1.38;;
20411;SDS011;10365;52.578;8.138;2024-01-15T08:55:23;5.10;;;1.92;;
20411;SDS011;10365;52.578;8.138;2024-01-15T08:57:48;4.75;;;2.05;;
20411;SDS011;10365;52.578;8.138;2024-01-15T09:00:17;4.53;;;2.03;;
20411;SDS011;10365;52.578;8.138;2024-01-15T09:02:42;7.97;;;1.85;;
20411;SDS011;10365;52.578;8.138;2024-01-15T09:05:08;6.35;;;2.13;;
20411;SDS011;10365;52.578;8.138;2024-01-15T09:07:33;4.15;;;1.17;;
20411;SDS011;10365;52.578;8.138;2024-01-15T09:09:58;4.18;;;1.50;;
20411;SDS011;10365;52.578;8.138;2024-01-15T09:12:25;10.38;;;1.85;;
20411;SDS011;10365;52.578;8.138;2024-01-15T09:14:50;8.02;;;1.85;;
20411;SDS011;10365;52.578;8.138;2024-01-15T09:17:15;8.18;;;2.05;;
20411;SDS011;10365;52.578;8.138;2024-01-15T09:19:41;4.43;;;2.00;;
20411;SDS011;10365;52.578;8.138;2024-01-15T09:22:07;11.02;;;2.60;;
20411;SDS011;10365;52.578;8.138;2024-01-15T09:24:32;5.93;;;2.13;;
20411;SDS011;10365;52.578;8.138;2024-01-15T09:26:57;5.25;;;2.17;;
20411;SDS011;10365;52.578;8.138;2024-01-15T09:29:23;5.28;;;2.05;;
20411;SDS011;10365;52.578;8.138;2024-01-15T09:31:49;7.93;;;2.22;;
20411;SDS011;10365;52.578;8.138;2024-01-15T09:34:15;13.13;;;2.20;;
20411;SDS011;10365;52.578;8.138;2024-01-15T09:36:40;10.45;;;2.95;;
20411;SDS011;10365;52.578;8.138;2024-01-15T09:39:07;3.72;;;1.60;;
20411;SDS011;10365;52.578;8.138;2024-01-15T09:41:37;9.73;;;2.30;;
20411;SDS011;10365;52.578;8.138;2024-01-15T09:44:05;12.15;;;2.28;;
20411;SDS011;10365;52.578;8.138;2024-01-15T09:46:33;10.23;;;2.60;;
20411;SDS011;10365;52.578;8.138;2024-01-15T09:48:58;10.80;;;2.90;;
20411;SDS011;10365;52.578;8.138;2024-01-15T09:51:24;10.15;;;3.22;;
20411;SDS011;10365;52.578;8.138;2024-01-15T09:53:50;11.20;;;2.83;;
20411;SDS011;10365;52.578;8.138;2024-01-15T09:56:15;21.42;;;4.10;;
20411;SDS011;10365;52.578;8.138;2024-01-15T09:58:41;17.10;;;3.83;;
20411;SDS011;10365;52.578;8.138;2024-01-15T10:01:07;12.52;;;3.13;;
20411;SDS011;10365;52.578;8.138;2024-01-15T10:03:33;7.75;;;3.03;;
20411;SDS011;10365;52.578;8.138;2024-01-15T10:05:59;11.88;;;2.42;;
20411;SDS011;10365;52.578;8.138;2024-01-15T10:08:24;13.98;;;3.47;;
20411;SDS011;10365;52.578;8.138;2024-01-15T10:10:50;10.10;;;2.75;;
20411;SDS011;10365;52.578;8.138;2024-01-15T10:13:15;14.73;;;3.22;;
20411;SDS011;10365;52.578;8.138;2024-01-15T10:15:40;20.15;;;3.38;;
20411;SDS011;10365;52.578;8.138;2024-01-15T10:18:07;12.40;;;3.00;;
20411;SDS011;10365;52.578;8.138;2024-01-15T10:20:33;11.27;;;2.90;;
20411;SDS011;10365;52.578;8.138;2024-01-15T10:22:58;16.58;;;2.67;;
20411;SDS011;10365;52.578;8.138;2024-01-15T10:25:24;15.32;;;2.60;;
20411;SDS011;10365;52.578;8.138;2024-01-15T10:28:03;17.58;;;3.05;;
20411;SDS011;10365;52.578;8.138;2024-01-15T10:30:29;10.68;;;2.47;;
20411;SDS011;10365;52.578;8.138;2024-01-15T10:32:58;9.00;;;2.20;;
20411;SDS011;10365;52.578;8.138;2024-01-15T10:35:26;11.23;;;2.42;;
20411;SDS011;10365;52.578;8.138;2024-01-15T10:37:51;9.40;;;2.17;;
20411;SDS011;10365;52.578;8.138;2024-01-15T10:40:17;12.18;;;2.20;;
20411;SDS011;10365;52.578;8.138;2024-01-15T10:42:43;15.65;;;2.63;;
20411;SDS011;10365;52.578;8.138;2024-01-15T10:45:09;10.75;;;2.30;;
20411;SDS011;10365;52.578;8.138;2024-01-15T10:47:34;10.38;;;2.17;;
20411;SDS011;10365;52.578;8.138;2024-01-15T10:50:01;11.82;;;2.17;;
20411;SDS011;10365;52.578;8.138;2024-01-15T10:52:27;3.78;;;1.58;;
20411;SDS011;10365;52.578;8.138;2024-01-15T10:54:53;12.27;;;1.90;;
20411;SDS011;10365;52.578;8.138;2024-01-15T10:57:18;11.05;;;1.80;;
20411;SDS011;10365;52.578;8.138;2024-01-15T10:59:45;3.85;;;1.55;;
20411;SDS011;10365;52.578;8.138;2024-01-15T11:02:12;15.95;;;1.92;;
20411;SDS011;10365;52.578;8.138;2024-01-15T11:04:37;4.95;;;1.50;;
20411;SDS011;10365;52.578;8.138;2024-01-15T11:07:03;8.32;;;1.70;;
20411;SDS011;10365;52.578;8.138;2024-01-15T11:09:28;9.13;;;2.15;;
20411;SDS011;10365;52.578;8.138;2024-01-15T11:12:08;6.88;;;1.70;;
20411;SDS011;10365;52.578;8.138;2024-01-15T11:17:00;6.90;;;1.50;;
20411;SDS011;10365;52.578;8.138;2024-01-15T11:19:25;9.00;;;1.30;;
20411;SDS011;10365;52.578;8.138;2024-01-15T11:21:51;7.97;;;1.60;;
20411;SDS011;10365;52.578;8.138;2024-01-15T11:24:36;8.90;;;1.98;;
20411;SDS011;10365;52.578;8.138;2024-01-15T11:27:01;7.20;;;1.40;;
20411;SDS011;10365;52.578;8.138;2024-01-15T11:31:56;7.05;;;1.80;;
20411;SDS011;10365;52.578;8.138;2024-01-15T11:34:22;6.55;;;1.33;;
20411;SDS011;10365;52.578;8.138;2024-01-15T11:37:08;6.88;;;1.08;;
20411;SDS011;10365;52.578;8.138;2024-01-15T11:42:02;7.55;;;1.77;;
20411;SDS011;10365;52.578;8.138;2024-01-15T11:44:30;7.03;;;1.20;;
20411;SDS011;10365;52.578;8.138;2024-01-15T11:46:59;2.40;;;0.85;;
20411;SDS011;10365;52.578;8.138;2024-01-15T11:52:11;4.32;;;0.80;;
20411;SDS011;10365;52.578;8.138;2024-01-15T11:54:37;6.10;;;1.13;;
20411;SDS011;10365;52.578;8.138;2024-01-15T11:57:04;9.55;;;1.20;;
20411;SDS011;10365;52.578;8.138;2024-01-15T11:59:33;7.78;;;1.27;;
20411;SDS011;10365;52.578;8.138;2024-01-15T12:01:58;6.65;;;1.00;;
20411;SDS011;10365;52.578;8.138;2024-01-15T12:04:23;7.93;;;1.15;;
20411;SDS011;10365;52.578;8.138;2024-01-15T12:06:49;4.82;;;1.05;;
20411;SDS011;10365;52.578;8.138;2024-01-15T12:09:14;8.38;;;1.25;;
20411;SDS011;10365;52.578;8.138;2024-01-15T12:11:40;3.17;;;0.90;;
20411;SDS011;10365;52.578;8.138;2024-01-15T12:14:07;7.35;;;1.23;;
20411;SDS011;10365;52.578;8.138;2024-01-15T12:16:33;8.20;;;1.17;;
20411;SDS011;10365;52.578;8.138;2024-01-15T12:18:59;11.07;;;1.20;;
20411;SDS011;10365;52.578;8.138;2024-01-15T12:21:26;4.20;;;1.20;;
20411;SDS011;10365;52.578;8.138;2024-01-15T12:23:51;5.38;;;1.40;;
20411;SDS011;10365;52.578;8.138;2024-01-15T12:26:17;4.28;;;0.88;;
20411;SDS011;10365;52.578;8.138;2024-01-15T12:28:43;6.15;;;1.80;;
20411;SDS011;10365;52.578;8.138;2024-01-15T12:31:08;6.85;;;3.15;;
20411;SDS011;10365;52.578;8.138;2024-01-15T12:33:33;5.20;;;1.25;;
20411;SDS011;10365;52.578;8.138;2024-01-15T12:35:59;6.93;;;1.13;;
20411;SDS011;10365;52.578;8.138;2024-01-15T12:38:24;2.88;;;1.02;;
20411;SDS011;10365;52.578;8.138;2024-01-15T12:40:49;9.77;;;1.63;;
20411;SDS011;10365;52.578;8.138;2024-01-15T12:43:15;5.65;;;1.40;;
20411;SDS011;10365;52.578;8.138;2024-01-15T12:45:40;4.65;;;1.25;;
20411;SDS011;10365;52.578;8.138;2024-01-15T12:48:05;4.43;;;1.52;;
20411;SDS011;10365;52.578;8.138;2024-01-15T12:50:31;5.30;;;1.20;;
20411;SDS011;10365;52.578;8.138;2024-01-15T12:52:58;2.60;;;0.88;;
20411;SDS011;10365;52.578;8.138;2024-01-15T12:55:24;4.50;;;1.10;;
20411;SDS011;10365;52.578;8.138;2024-01-15T12:57:50;4.78;;;0.93;;
20411;SDS011;10365;52.578;8.138;2024-01-15T13:00:19;4.65;;;1.05;;
20411;SDS011;10365;52.578;8.138;2024-01-15T13:02:44;11.25;;;1.30;;
20411;SDS011;10365;52.578;8.138;2024-01-15T13:05:10;6.43;;;1.08;;
20411;SDS011;10365;52.578;8.138;2024-01-15T13:07:38;9.23;;;1.67;;
20411;SDS011;10365;52.578;8.138;2024-01-15T13:10:04;3.38;;;1.25;;
20411;SDS011;10365;52.578;8.138;2024-01-15T13:12:30;4.07;;;0.90;;
20411;SDS011;10365;52.578;8.138;2024-01-15T13:14:55;4.60;;;1.80;;
20411;SDS011;10365;52.578;8.138;2024-01-15T13:17:21;3.60;;;1.20;;
20411;SDS011;10365;52.578;8.138;2024-01-15T13:19:46;12.48;;;1.50;;
20411;SDS011;10365;52.578;8.138;2024-01-15T13:22:12;6.72;;;1.13;;
20411;SDS011;10365;52.578;8.138;2024-01-15T13:24:39;7.43;;;3.13;;
20411;SDS011;10365;52.578;8.138;2024-01-15T13:27:04;4.47;;;1.63;;
20411;SDS011;10365;52.578;8.138;2024-01-15T13:29:31;7.00;;;1.52;;
20411;SDS011;10365;52.578;8.138;2024-01-15T13:31:56;3.72;;;1.20;;
20411;SDS011;10365;52.578;8.138;2024-01-15T13:34:22;4.40;;;1.08;;
20411;SDS011;10365;52.578;8.138;2024-01-15T13:36:47;4.45;;;0.90;;
20411;SDS011;10365;52.578;8.138;2024-01-15T13:39:12;7.05;;;1.42;;
20411;SDS011;10365;52.578;8.138;2024-01-15T13:41:38;3.92;;;1.05;;
20411;SDS011;10365;52.578;8.138;2024-01-15T13:44:03;8.18;;;0.98;;
20411;SDS011;10365;52.578;8.138;2024-01-15T13:46:29;2.25;;;0.68;;
20411;SDS011;10365;52.578;8.138;2024-01-15T13:48:54;3.45;;;0.68;;
20411;SDS011;10365;52.578;8.138;2024-01-15T13:51:23;2.00;;;0.60;;
20411;SDS011;10365;52.578;8.138;2024-01-15T13:53:48;3.20;;;0.60;;
20411;SDS011;10365;52.578;8.138;2024-01-15T13:56:14;2.67;;;0.40;;
20411;SDS011;10365;52.578;8.138;2024-01-15T13:58:40;1.50;;;0.50;;
20411;SDS011;10365;52.578;8.138;2024-01-15T14:01:05;2.78;;;0.43;;
20411;SDS011;10365;52.578;8.138;2024-01-15T14:03:31;2.55;;;0.40;;
20411;SDS011;10365;52.578;8.138;2024-01-15T14:05:56;0.85;;;0.45;;
20411;SDS011;10365;52.578;8.138;2024-01-15T14:08:22;2.30;;;0.60;;
20411;SDS011;10365;52.578;8.138;2024-01-15T14:10:47;3.63;;;0.70;;
20411;SDS011;10365;52.578;8.138;2024-01-15T14:13:12;2.03;;;0.70;;
20411;SDS011;10365;52.578;8.138;2024-01-15T14:15:38;2.90;;;0.50;;
20411;SDS011;10365;52.578;8.138;2024-01-15T14:18:03;1.08;;;0.40;;
20411;SDS011;10365;52.578;8.138;2024-01-15T14:20:28;2.40;;;0.73;;
20411;SDS011;10365;52.578;8.138;2024-01-15T14:22:54;5.30;;;0.73;;
20411;SDS011;10365;52.578;8.138;2024-01-15T14:25:20;3.88;;;0.95;;
20411;SDS011;10365;52.578;8.138;2024-01-15T14:27:45;3.92;;;1.10;;
20411;SDS011;10365;52.578;8.138;2024-01-15T14:30:10;1.33;;;0.80;;
20411;SDS011;10365;52.578;8.138;2024-01-15T14:32:38;5.28;;;1.83;;
20411;SDS011;10365;52.578;8.138;2024-01-15T14:35:03;7.03;;;1.95;;
20411;SDS011;10365;52.578;8.138;2024-01-15T14:37:30;11.05;;;3.38;;
20411;SDS011;10365;52.578;8.138;2024-01-15T14:39:56;9.35;;;3.85;;
20411;SDS011;10365;52.578;8.138;2024-01-15T14:42:21;7.68;;;2.88;;
20411;SDS011;10365;52.578;8.138;2024-01-15T14:44:47;7.20;;;1.60;;